Time;durP1;ratioP1;P1;durP2;ratioP2;P2;SDS_P1;SDS_P2;PMS_P1;PMS_P2;Temp;Humidity;BMP_temperature;BMP_pressure;BME280_temperature;BME280_humidity;BME280_pressure;Samples;Min_cycle;Max_cycle;Signal;HPM_P1;HPM_P2
2022/03/07 00:00:19;;;;;;;10.20;6.47;;;;;;;-0.12;59.42;99588.31;5050358;28;20079;-82
2022/03/07 00:02:49;;;;;;;11.80;6.27;;;;;;;-0.04;59.52;99599.38;5050861;28;20488;-81
2022/03/07 00:05:17;;;;;;;11.13;6.43;;;;;;;-0.14;59.87;99592.94;5052163;28;20049;-81
2022/03/07 00:07:44;;;;;;;10.43;5.53;;;;;;;-0.04;59.83;99608.22;5052928;28;20076;-81
2022/03/07 00:10:11;;;;;;;10.63;6.23;;;;;;;-0.12;60.63;99604.38;5052436;28;20041;-81
2022/03/07 00:12:37;;;;;;;10.97;6.10;;;;;;;-0.18;60.76;99600.31;5062053;28;20480;-81
2022/03/07 00:15:04;;;;;;;11.73;6.70;;;;;;;-0.26;61.33;99587.47;5048743;28;20411;-81
2022/03/07 00:17:31;;;;;;;7.77;5.57;;;;;;;-0.21;60.99;99609.41;5049972;28;20060;-81
2022/03/07 00:19:58;;;;;;;8.73;5.67;;;;;;;-0.30;61.14;99607.38;5049712;28;20131;-81
2022/03/07 00:22:26;;;;;;;9.67;6.17;;;;;;;-0.32;61.05;99587.03;5050088;28;20048;-81
2022/03/07 00:24:52;;;;;;;8.53;5.83;;;;;;;-0.17;61.62;99609.19;5048124;28;20055;-81
2022/03/07 00:27:19;;;;;;;7.97;5.53;;;;;;;-0.29;61.56;99598.38;5048754;28;20392;-81
2022/03/07 00:29:45;;;;;;;9.07;5.10;;;;;;;-0.23;60.90;99613.97;5050604;28;20057;-81
2022/03/07 00:32:12;;;;;;;8.87;5.83;;;;;;;-0.39;61.10;99594.63;5049820;28;20041;-81
2022/03/07 00:34:39;;;;;;;6.57;5.20;;;;;;;-0.24;61.35;99606.06;5049264;28;20444;-81
2022/03/07 00:37:06;;;;;;;10.23;6.23;;;;;;;-0.32;60.73;99603.91;5049093;28;20049;-81
2022/03/07 00:39:34;;;;;;;7.87;4.83;;;;;;;-0.46;61.36;99598.69;5049441;28;20056;-81
2022/03/07 00:42:00;;;;;;;10.10;5.13;;;;;;;-0.36;61.78;99619.31;5049980;28;20040;-81
2022/03/07 00:44:27;;;;;;;9.13;5.83;;;;;;;-0.51;60.92;99598.13;5053076;28;20044;-81
2022/03/07 00:46:54;;;;;;;8.17;5.03;;;;;;;-0.55;60.15;99584.97;5048909;28;20049;-81
2022/03/07 00:49:20;;;;;;;7.33;5.40;;;;;;;-0.45;61.02;99589.69;5051024;28;20049;-81
2022/03/07 00:51:47;;;;;;;7.73;4.93;;;;;;;-0.41;60.94;99618.75;5050962;28;20049;-81
2022/03/07 00:54:14;;;;;;;8.17;5.47;;;;;;;-0.44;60.63;99612.78;5054724;28;20044;-81
2022/03/07 00:56:41;;;;;;;7.70;5.27;;;;;;;-0.48;60.08;99605.91;5053168;28;20056;-81
2022/03/07 00:59:08;;;;;;;9.43;5.73;;;;;;;-0.59;60.95;99601.31;5051771;28;20041;-82
2022/03/07 01:01:35;;;;;;;11.53;5.33;;;;;;;-0.60;60.44;99600.47;5051294;28;20163;-81
2022/03/07 01:04:02;;;;;;;9.33;6.00;;;;;;;-0.69;59.92;99586.84;5060060;28;20049;-81
2022/03/07 01:06:28;;;;;;;7.67;5.27;;;;;;;-0.63;60.40;99600.66;5058177;28;20048;-81
2022/03/07 01:08:55;;;;;;;9.80;5.53;;;;;;;-0.58;59.64;99608.38;5055453;28;20052;-81
2022/03/07 01:11:21;;;;;;;9.63;5.43;;;;;;;-0.56;58.92;99615.31;5053076;28;20052;-81
2022/03/07 01:13:49;;;;;;;9.10;5.50;;;;;;;-0.69;58.93;99616.22;5052196;28;20059;-81
2022/03/07 01:16:16;;;;;;;9.17;5.47;;;;;;;-0.65;59.09;99617.75;5055214;28;20075;-81
2022/03/07 01:18:43;;;;;;;7.87;5.50;;;;;;;-0.78;58.58;99607.03;5059265;28;20047;-81
2022/03/07 01:21:10;;;;;;;7.97;5.13;;;;;;;-0.76;59.52;99613.97;5058056;28;20079;-81
2022/03/07 01:23:36;;;;;;;8.30;5.80;;;;;;;-0.80;59.38;99603.59;5052135;28;20092;-81
2022/03/07 01:26:03;;;;;;;6.13;4.60;;;;;;;-0.85;59.90;99601.22;5052290;28;20099;-81
2022/03/07 01:28:30;;;;;;;8.63;5.63;;;;;;;-0.84;59.43;99602.97;5052605;28;20044;-81
2022/03/07 01:30:57;;;;;;;6.97;5.43;;;;;;;-0.91;59.01;99601.63;5050770;28;20075;-80
2022/03/07 01:33:24;;;;;;;9.20;5.07;;;;;;;-0.92;58.53;99602.59;5054246;28;20064;-81
2022/03/07 01:35:51;;;;;;;10.97;5.43;;;;;;;-1.13;59.28;99581.72;5063603;28;20055;-81
2022/03/07 01:38:18;;;;;;;8.13;5.17;;;;;;;-1.01;59.18;99605.88;5057041;28;20037;-81
2022/03/07 01:40:45;;;;;;;12.67;5.60;;;;;;;-1.14;59.32;99598.66;5052480;28;20102;-81
2022/03/07 01:43:12;;;;;;;9.53;5.57;;;;;;;-1.33;60.43;99577.66;5052477;28;20047;-81
2022/03/07 01:45:40;;;;;;;7.43;4.90;;;;;;;-1.41;61.06;99584.47;5052305;28;20045;-81
2022/03/07 01:48:09;;;;;;;10.90;5.63;;;;;;;-1.32;60.71;99599.88;5060192;28;20044;-81
2022/03/07 01:50:35;;;;;;;8.03;6.20;;;;;;;-1.32;61.24;99586.53;5060874;28;20051;-81
2022/03/07 01:53:02;;;;;;;7.97;5.20;;;;;;;-1.41;61.29;99600.47;5052402;28;20099;-81
2022/03/07 01:55:29;;;;;;;9.97;6.03;;;;;;;-1.54;61.73;99585.22;5051456;28;20056;-81
2022/03/07 01:57:56;;;;;;;12.10;6.27;;;;;;;-1.55;61.32;99559.53;5052115;28;20048;-81
2022/03/07 02:00:25;;;;;;;9.67;6.10;;;;;;;-1.45;61.08;99587.28;5052526;28;20076;-81
2022/03/07 02:02:53;;;;;;;9.98;6.03;;;;;;;-1.59;61.65;99575.81;5052480;28;20053;-81
2022/03/07 02:05:21;;;;;;;11.20;6.97;;;;;;;-1.73;62.36;99577.53;5051721;28;20049;-81
2022/03/07 02:07:48;;;;;;;9.87;6.40;;;;;;;-1.88;63.90;99570.50;5050233;28;20045;-81
2022/03/07 02:10:15;;;;;;;10.07;6.10;;;;;;;-2.05;63.80;99567.06;5050648;28;20562;-81
2022/03/07 02:12:42;;;;;;;10.70;5.70;;;;;;;-2.02;64.71;99582.88;5059219;28;20078;-81
2022/03/07 02:15:10;;;;;;;9.20;6.50;;;;;;;-2.08;65.76;99585.06;5042447;28;20048;-80
2022/03/07 02:17:37;;;;;;;10.07;6.30;;;;;;;-1.98;62.58;99559.56;5052008;28;20140;-81
2022/03/07 02:20:05;;;;;;;9.50;6.03;;;;;;;-1.99;63.51;99569.38;5051431;28;20087;-81
2022/03/07 02:22:34;;;;;;;10.87;6.20;;;;;;;-2.13;63.77;99567.53;5051263;28;20492;-81
2022/03/07 02:25:00;;;;;;;10.37;6.27;;;;;;;-2.16;64.74;99569.53;5051439;28;20052;-81
2022/03/07 02:27:27;;;;;;;11.53;5.77;;;;;;;-2.26;64.30;99560.41;5050848;28;20419;-81
2022/03/07 02:29:53;;;;;;;10.67;6.90;;;;;;;-2.24;64.57;99561.16;5052110;28;20500;-81
2022/03/07 02:32:20;;;;;;;9.27;5.80;;;;;;;-2.10;63.69;99574.50;5051131;28;20053;-81
2022/03/07 02:34:47;;;;;;;8.83;5.87;;;;;;;-2.27;63.38;99575.53;5051413;28;20045;-81
2022/03/07 02:37:14;;;;;;;12.00;6.60;;;;;;;-2.28;62.96;99562.31;5051259;28;20515;-81
2022/03/07 02:39:42;;;;;;;8.60;5.63;;;;;;;-2.40;63.51;99562.09;5050491;28;20041;-81
2022/03/07 02:42:08;;;;;;;8.60;6.33;;;;;;;-2.41;64.11;99565.72;5050930;28;20131;-81
2022/03/07 02:44:35;;;;;;;10.80;6.17;;;;;;;-2.46;63.92;99573.13;5050891;28;20127;-81
2022/03/07 02:47:02;;;;;;;11.70;6.57;;;;;;;-2.45;63.04;99565.97;5051362;28;20139;-81
2022/03/07 02:49:29;;;;;;;11.47;6.23;;;;;;;-2.31;62.54;99566.84;5051730;28;20041;-81
2022/03/07 02:51:55;;;;;;;13.73;7.07;;;;;;;-2.44;63.43;99557.88;5050133;28;20382;-82
2022/03/07 02:54:22;;;;;;;11.03;6.10;;;;;;;-2.40;63.12;99558.59;5050689;28;20142;-81
2022/03/07 02:56:50;;;;;;;9.17;6.60;;;;;;;-2.63;64.41;99546.66;5050454;28;20051;-81
2022/03/07 02:59:17;;;;;;;11.87;6.60;;;;;;;-2.60;63.03;99557.97;5053538;28;20498;-81
2022/03/07 03:01:44;;;;;;;11.53;7.13;;;;;;;-2.55;63.32;99569.19;5051449;28;20041;-81
2022/03/07 03:04:11;;;;;;;10.30;6.37;;;;;;;-2.54;62.64;99568.25;5050431;28;20447;-81
2022/03/07 03:06:37;;;;;;;11.47;6.50;;;;;;;-2.56;62.05;99561.28;5051436;28;20045;-81
2022/03/07 03:09:05;;;;;;;13.50;7.07;;;;;;;-2.58;62.23;99545.41;5050649;28;20127;-81
2022/03/07 03:11:32;;;;;;;11.07;5.63;;;;;;;-2.42;62.49;99573.81;5051075;28;20077;-81
2022/03/07 03:14:00;;;;;;;10.07;6.80;;;;;;;-2.58;62.52;99558.72;5047941;28;20041;-81
2022/03/07 03:16:27;;;;;;;7.97;5.80;;;;;;;-2.54;63.21;99572.72;5057006;28;20141;-81
2022/03/07 03:18:53;;;;;;;11.67;6.67;;;;;;;-2.68;63.23;99555.78;5054255;28;20447;-81
2022/03/07 03:21:20;;;;;;;10.00;6.17;;;;;;;-2.64;63.38;99550.25;5050899;28;20412;-81
2022/03/07 03:23:47;;;;;;;11.53;6.83;;;;;;;-2.61;63.29;99561.56;5049389;28;20041;-81
2022/03/07 03:26:14;;;;;;;12.27;6.63;;;;;;;-2.54;62.98;99580.72;5050280;28;20055;-81
2022/03/07 03:28:41;;;;;;;10.87;6.23;;;;;;;-2.49;63.30;99574.16;5050575;28;20443;-81
2022/03/07 03:31:11;;;;;;;10.37;6.57;;;;;;;-2.58;63.82;99560.53;5052284;28;20055;-81
2022/03/07 03:33:38;;;;;;;10.43;5.83;;;;;;;-2.56;63.76;99572.81;5059736;28;20480;-81
2022/03/07 03:36:05;;;;;;;11.67;5.67;;;;;;;-2.61;63.84;99571.38;5050570;28;20057;-81
2022/03/07 03:38:32;;;;;;;11.43;6.57;;;;;;;-2.56;64.17;99564.84;5049732;28;20055;-81
2022/03/07 03:40:58;;;;;;;10.77;6.33;;;;;;;-2.59;64.29;99562.38;5049845;28;20045;-81
2022/03/07 03:43:25;;;;;;;10.27;5.83;;;;;;;-2.51;64.70;99589.38;5050052;28;20049;-81
2022/03/07 03:45:52;;;;;;;10.57;6.07;;;;;;;-2.53;64.75;99579.75;5049495;28;20048;-81
2022/03/07 03:48:20;;;;;;;13.80;6.37;;;;;;;-2.45;64.56;99585.50;5050629;28;20404;-81
2022/03/07 03:50:46;;;;;;;14.00;7.37;;;;;;;-2.46;65.05;99581.09;5049294;28;20037;-81
2022/03/07 03:53:13;;;;;;;10.23;5.47;;;;;;;-2.54;64.35;99578.06;5049883;28;20648;-81
2022/03/07 03:55:39;;;;;;;11.87;6.33;;;;;;;-2.59;64.81;99574.78;5049882;28;20044;-81
2022/03/07 03:58:06;;;;;;;12.00;6.57;;;;;;;-2.52;65.71;99582.31;5050237;28;20453;-80
2022/03/07 04:00:33;;;;;;;12.83;5.43;;;;;;;-2.50;65.76;99584.88;5050305;28;20123;-81
2022/03/07 04:02:59;;;;;;;12.43;6.20;;;;;;;-2.49;66.15;99592.78;5050203;28;20489;-81
2022/03/07 04:05:30;;;;;;;10.97;6.60;;;;;;;-2.60;66.55;99591.72;5054457;28;20054;-81
2022/03/07 04:07:56;;;;;;;11.37;5.70;;;;;;;-2.64;67.25;99572.41;5054606;28;20092;-81
2022/03/07 04:10:23;;;;;;;12.37;5.97;;;;;;;-2.51;67.63;99589.38;5049378;28;21756;-81
2022/03/07 04:12:49;;;;;;;12.77;6.63;;;;;;;-2.49;68.30;99605.25;5050151;28;20045;-81
2022/03/07 04:15:17;;;;;;;13.37;6.93;;;;;;;-2.49;69.12;99599.94;5048418;28;20045;-81
2022/03/07 04:17:44;;;;;;;12.23;7.00;;;;;;;-2.59;69.08;99580.13;5050269;28;20133;-81
2022/03/07 04:20:12;;;;;;;13.47;7.20;;;;;;;-2.69;69.73;99593.97;5048806;28;20082;-81
2022/03/07 04:22:42;;;;;;;18.40;7.87;;;;;;;-2.88;71.10;99588.00;5063556;28;20055;-81
2022/03/07 04:25:10;;;;;;;14.07;7.90;;;;;;;-3.00;72.46;99578.94;5048947;28;20132;-81
2022/03/07 04:27:37;;;;;;;13.07;6.60;;;;;;;-2.94;72.39;99594.53;5049679;28;20449;-81
2022/03/07 04:30:06;;;;;;;12.70;7.57;;;;;;;-2.92;72.68;99583.81;5049982;28;20052;-81
2022/03/07 04:32:36;;;;;;;13.98;6.47;;;;;;;-3.06;73.22;99568.66;5050540;28;20463;-81
2022/03/07 04:35:05;;;;;;;14.33;6.87;;;;;;;-2.92;73.41;99597.09;5042077;28;20049;-81
2022/03/07 04:37:32;;;;;;;12.05;6.38;;;;;;;-2.97;73.56;99605.38;5052958;28;20063;-81
2022/03/07 04:40:03;;;;;;;10.67;6.33;;;;;;;-3.08;74.28;99590.03;5054513;28;20128;-81
2022/03/07 04:42:29;;;;;;;12.13;6.47;;;;;;;-2.84;75.37;99608.19;5053741;28;20073;-81
2022/03/07 04:44:56;;;;;;;11.87;6.87;;;;;;;-2.83;75.67;99593.06;5052845;28;20045;-81
2022/03/07 04:47:23;;;;;;;9.17;5.93;;;;;;;-2.76;76.22;99613.06;5053794;28;20052;-81
2022/03/07 04:49:50;;;;;;;12.93;5.90;;;;;;;-2.78;77.20;99621.13;5053520;28;20131;-81
2022/03/07 04:52:16;;;;;;;14.53;6.40;;;;;;;-2.79;77.40;99618.56;5053259;28;20076;-81
2022/03/07 04:54:43;;;;;;;13.80;5.63;;;;;;;-2.76;77.52;99618.38;5052898;28;20073;-81
2022/03/07 04:57:11;;;;;;;8.60;5.50;;;;;;;-2.78;77.91;99607.81;5058814;28;20052;-81
2022/03/07 04:59:38;;;;;;;9.17;5.50;;;;;;;-2.95;79.57;99608.81;5057100;28;20049;-81
2022/03/07 05:02:04;;;;;;;9.13;5.17;;;;;;;-2.87;78.49;99606.56;5053728;28;20451;-81
2022/03/07 05:04:31;;;;;;;9.73;5.17;;;;;;;-2.68;77.95;99626.75;5052525;28;20156;-82
2022/03/07 05:06:58;;;;;;;11.30;5.63;;;;;;;-2.80;77.85;99607.06;5051133;28;20144;-81
2022/03/07 05:09:24;;;;;;;8.83;5.70;;;;;;;-2.75;77.64;99601.47;5053006;28;20051;-81
2022/03/07 05:11:51;;;;;;;7.00;4.73;;;;;;;-2.63;77.46;99614.06;5053587;28;20056;-78
2022/03/07 05:14:19;;;;;;;10.10;5.33;;;;;;;-2.77;77.28;99593.59;5052515;28;20037;-83
2022/03/07 05:16:46;;;;;;;9.83;5.33;;;;;;;-2.79;76.88;99603.44;5052033;28;20052;-82
2022/03/07 05:19:13;;;;;;;8.87;4.80;;;;;;;-2.72;78.08;99612.78;5052675;28;20131;-82
2022/03/07 05:21:39;;;;;;;9.53;5.63;;;;;;;-2.79;77.78;99611.41;5052705;28;20045;-82
2022/03/07 05:24:07;;;;;;;10.27;5.93;;;;;;;-2.84;78.04;99605.53;5051361;28;20051;-81
2022/03/07 05:26:33;;;;;;;11.90;5.73;;;;;;;-2.94;79.79;99612.31;5053444;28;20507;-82
2022/03/07 05:29:00;;;;;;;9.23;5.17;;;;;;;-2.80;78.01;99616.84;5052684;28;20052;-82
2022/03/07 05:31:28;;;;;;;6.10;4.37;;;;;;;-2.80;78.30;99616.84;5052791;28;20068;-82
2022/03/07 05:33:55;;;;;;;11.17;5.47;;;;;;;-2.74;78.32;99635.09;5052302;28;20045;-82
2022/03/07 05:36:22;;;;;;;10.50;5.63;;;;;;;-2.79;77.73;99635.38;5052864;28;20556;-82
2022/03/07 05:38:49;;;;;;;16.10;5.57;;;;;;;-2.86;78.70;99640.22;5052733;28;20084;-81
2022/03/07 05:41:16;;;;;;;7.73;5.07;;;;;;;-3.01;78.65;99630.44;5051163;28;20072;-82
2022/03/07 05:43:43;;;;;;;6.83;4.27;;;;;;;-2.94;78.64;99634.44;5051457;28;20451;-82
2022/03/07 05:46:10;;;;;;;7.53;4.87;;;;;;;-2.93;78.52;99633.50;5051170;28;20053;-82
2022/03/07 05:48:38;;;;;;;9.27;5.30;;;;;;;-2.87;78.64;99650.94;5052914;28;20061;-82
2022/03/07 05:51:05;;;;;;;10.30;5.33;;;;;;;-2.98;78.63;99634.72;5052523;28;20144;-82
2022/03/07 05:53:32;;;;;;;6.83;4.23;;;;;;;-2.89;78.40;99648.38;5052366;28;20176;-82
2022/03/07 05:56:00;;;;;;;13.17;4.90;;;;;;;-2.91;77.65;99649.38;5051847;28;20482;-82
2022/03/07 05:58:27;;;;;;;8.30;4.07;;;;;;;-3.02;78.59;99644.69;5050730;28;20123;-82
2022/03/07 06:00:53;;;;;;;7.40;4.43;;;;;;;-2.92;78.44;99655.66;5052171;28;20437;-81
2022/03/07 06:03:20;;;;;;;11.13;5.00;;;;;;;-3.14;78.52;99632.94;5051542;28;20052;-82
2022/03/07 06:05:48;;;;;;;9.77;4.73;;;;;;;-3.00;78.52;99656.09;5052392;28;20557;-81
2022/03/07 06:08:15;;;;;;;6.53;4.03;;;;;;;-2.96;77.54;99647.00;5052496;28;20128;-82
2022/03/07 06:10:42;;;;;;;10.17;4.43;;;;;;;-3.06;77.98;99646.63;5052180;28;20571;-82
2022/03/07 06:13:08;;;;;;;12.40;5.20;;;;;;;-2.99;78.31;99652.50;5051175;28;20115;-81
2022/03/07 06:15:35;;;;;;;7.60;4.17;;;;;;;-3.04;77.84;99644.78;5048914;28;20053;-82
2022/03/07 06:18:02;;;;;;;9.57;4.60;;;;;;;-2.93;77.35;99661.94;5042665;28;20481;-82
2022/03/07 06:20:29;;;;;;;7.03;4.17;;;;;;;-2.80;76.91;99654.09;5053894;28;20045;-82
2022/03/07 06:22:57;;;;;;;8.20;3.70;;;;;;;-2.88;76.71;99647.41;5052044;28;20049;-82
2022/03/07 06:25:24;;;;;;;7.40;4.47;;;;;;;-2.81;76.61;99652.41;5049666;28;20456;-82
2022/03/07 06:27:51;;;;;;;8.20;3.90;;;;;;;-3.00;76.94;99626.81;5045425;28;20091;-82
2022/03/07 06:30:17;;;;;;;9.13;4.87;;;;;;;-2.81;76.57;99655.91;5052281;28;20538;-83
2022/03/07 06:32:44;;;;;;;10.73;5.13;;;;;;;-2.79;76.42;99658.47;5052420;28;20053;-83
2022/03/07 06:35:11;;;;;;;11.03;3.90;;;;;;;-2.82;75.57;99632.03;5049524;28;20049;-83
2022/03/07 06:37:37;;;;;;;7.53;4.50;;;;;;;-2.70;75.37;99653.47;5050303;28;20136;-83
2022/03/07 06:40:07;;;;;;;10.37;4.30;;;;;;;-2.75;75.00;99625.44;5051245;28;20045;-83
2022/03/07 06:42:34;;;;;;;8.90;4.65;;;;;;;-2.77;74.57;99643.28;5051454;28;20164;-82
2022/03/07 06:45:01;;;;;;;11.77;4.90;;;;;;;-2.54;74.09;99658.78;5047021;28;20071;-82
2022/03/07 06:47:28;;;;;;;11.47;4.63;;;;;;;-2.55;74.21;99629.56;5050861;28;20546;-82
2022/03/07 06:49:57;;;;;;;7.97;4.87;;;;;;;-2.58;73.91;99627.94;5051166;28;20060;-82
2022/03/07 06:52:24;;;;;;;6.85;4.10;;;;;;;-2.54;73.53;99634.81;5057183;28;20052;-81
2022/03/07 06:54:52;;;;;;;8.37;4.57;;;;;;;-2.45;73.12;99630.75;5049921;28;20040;-82
2022/03/07 06:57:21;;;;;;;11.20;4.83;;;;;;;-2.36;73.06;99632.88;5050575;28;20048;-82
2022/03/07 06:59:49;;;;;;;10.13;5.13;;;;;;;-2.23;72.46;99656.97;5055478;28;20488;-82
2022/03/07 07:02:16;;;;;;;8.07;4.67;;;;;;;-2.39;72.06;99629.53;5050860;28;20087;-81
2022/03/07 07:04:44;;;;;;;10.40;4.40;;;;;;;-2.23;72.44;99648.09;5043708;28;20500;-81
2022/03/07 07:07:10;;;;;;;8.97;5.03;;;;;;;-2.03;71.57;99665.56;5048776;28;20094;-81
2022/03/07 07:09:38;;;;;;;8.17;4.63;;;;;;;-2.13;70.55;99662.59;5050200;28;20057;-82
2022/03/07 07:12:05;;;;;;;11.63;5.77;;;;;;;-2.05;71.68;99675.44;5050833;28;20579;-81
2022/03/07 07:14:34;;;;;;;8.20;4.47;;;;;;;-1.96;70.92;99680.22;5049559;28;20396;-81
2022/03/07 07:17:00;;;;;;;8.20;5.33;;;;;;;-1.99;70.46;99664.44;5053704;28;20041;-81
2022/03/07 07:19:27;;;;;;;10.50;5.67;;;;;;;-1.92;70.97;99680.91;5050310;28;20053;-82
2022/03/07 07:21:54;;;;;;;12.17;6.63;;;;;;;-1.87;71.96;99673.47;5050527;28;20102;-81
2022/03/07 07:24:20;;;;;;;11.50;6.20;;;;;;;-1.79;70.02;99695.22;5048567;28;20135;-82
2022/03/07 07:26:47;;;;;;;13.00;6.47;;;;;;;-1.71;70.45;99684.09;5050462;28;20041;-81
2022/03/07 07:29:14;;;;;;;8.63;5.30;;;;;;;-1.79;70.10;99666.75;5053611;28;20453;-82
2022/03/07 07:31:42;;;;;;;9.50;5.87;;;;;;;-1.66;70.63;99698.81;5049825;28;20473;-81
2022/03/07 07:34:09;;;;;;;8.73;5.20;;;;;;;-1.68;70.25;99686.56;5049980;28;20055;-81
2022/03/07 07:36:36;;;;;;;10.23;5.83;;;;;;;-1.65;70.34;99683.69;5048402;28;20088;-82
2022/03/07 07:39:02;;;;;;;12.63;6.43;;;;;;;-1.61;70.79;99678.09;5047482;28;20439;-81
2022/03/07 07:41:29;;;;;;;8.20;4.93;;;;;;;-1.58;69.33;99671.72;5052093;28;20332;-82
2022/03/07 07:43:56;;;;;;;11.37;6.67;;;;;;;-1.54;69.48;99685.69;5055825;28;20049;-82
2022/03/07 07:46:23;;;;;;;10.50;5.80;;;;;;;-1.41;69.76;99697.31;5052057;28;20135;-81
2022/03/07 07:48:51;;;;;;;12.00;6.00;;;;;;;-1.45;69.53;99683.31;5049752;28;20048;-82
2022/03/07 07:51:17;;;;;;;11.97;5.93;;;;;;;-1.43;69.54;99676.09;5050434;28;20041;-82
2022/03/07 07:53:44;;;;;;;10.57;5.43;;;;;;;-1.27;68.88;99691.97;5047826;28;20053;-82
2022/03/07 07:56:11;;;;;;;8.63;5.33;;;;;;;-1.43;67.92;99683.19;5050465;28;20140;-82
2022/03/07 07:58:40;;;;;;;10.97;6.23;;;;;;;-1.32;68.79;99688.75;5047441;28;20136;-82
2022/03/07 08:01:07;;;;;;;12.53;5.97;;;;;;;-1.33;69.23;99692.34;5048949;28;20040;-82
2022/03/07 08:03:34;;;;;;;11.80;6.10;;;;;;;-1.12;68.02;99707.97;5047482;28;20045;-82
2022/03/07 08:06:02;;;;;;;10.90;6.43;;;;;;;-1.15;66.69;99694.81;5049150;28;20055;-83
2022/03/07 08:08:28;;;;;;;15.03;6.27;;;;;;;-1.17;67.37;99699.41;5049106;28;20052;-82
2022/03/07 08:10:55;;;;;;;12.40;6.47;;;;;;;-0.98;65.90;99720.44;5052795;28;20410;-82
2022/03/07 08:13:22;;;;;;;12.27;6.07;;;;;;;-0.93;64.32;99723.69;5048875;28;20051;-82
2022/03/07 08:15:49;;;;;;;9.40;5.27;;;;;;;-0.91;65.33;99730.63;5048133;28;20051;-83
2022/03/07 08:18:16;;;;;;;13.20;7.23;;;;;;;-0.90;66.44;99702.13;5049929;28;20437;-82
2022/03/07 08:20:44;;;;;;;16.13;7.47;;;;;;;-0.72;65.43;99708.94;5051993;28;20051;-82
2022/03/07 08:23:13;;;;;;;10.60;6.07;;;;;;;-0.61;64.00;99718.91;5049078;28;20049;-83
2022/03/07 08:25:40;;;;;;;14.40;7.47;;;;;;;-0.67;62.55;99697.97;5047550;28;20526;-79
2022/03/07 08:28:07;;;;;;;11.63;6.87;;;;;;;-0.55;63.14;99715.84;5048807;28;20055;-79
2022/03/07 08:30:34;;;;;;;14.07;5.87;;;;;;;-0.55;63.66;99705.16;5046116;28;20427;-77
2022/03/07 08:33:01;;;;;;;10.33;6.20;;;;;;;-0.41;62.81;99714.06;5051904;28;20049;-77
2022/03/07 08:35:28;;;;;;;10.93;6.07;;;;;;;-0.43;62.12;99730.22;5051837;28;20080;-77
2022/03/07 08:37:55;;;;;;;11.60;6.50;;;;;;;-0.52;61.68;99719.28;5048725;28;20052;-78
2022/03/07 08:40:25;;;;;;;13.33;6.93;;;;;;;-0.41;61.59;99727.44;5048330;28;20072;-81
2022/03/07 08:42:52;;;;;;;12.13;6.97;;;;;;;-0.32;61.22;99728.66;5049286;28;20057;-82
2022/03/07 08:45:19;;;;;;;12.80;6.63;;;;;;;-0.21;59.26;99743.00;5049077;28;20083;-82
2022/03/07 08:47:45;;;;;;;11.33;5.20;;;;;;;-0.43;58.37;99722.19;5048722;28;20094;-82
2022/03/07 08:50:15;;;;;;;11.60;6.17;;;;;;;-0.26;58.01;99741.59;5048087;28;20381;-82
2022/03/07 08:52:41;;;;;;;10.95;6.50;;;;;;;-0.30;58.51;99748.09;5048130;28;20065;-82
2022/03/07 08:55:10;;;;;;;9.27;5.93;;;;;;;-0.34;58.19;99728.75;5049166;28;20079;-82
2022/03/07 08:57:40;;;;;;;12.53;6.90;;;;;;;-0.15;57.28;99755.13;5048946;28;20136;-82
2022/03/07 09:00:09;;;;;;;14.17;6.23;;;;;;;-0.25;57.13;99741.50;5049742;28;20094;-82
2022/03/07 09:02:36;;;;;;;11.15;6.95;;;;;;;-0.20;57.42;99742.06;5047763;28;20508;-82
2022/03/07 09:05:04;;;;;;;8.77;5.93;;;;;;;-0.07;57.85;99758.13;5048144;28;20045;-81
2022/03/07 09:07:30;;;;;;;10.47;6.23;;;;;;;-0.09;58.03;99744.00;5053283;28;20565;-82
2022/03/07 09:09:57;;;;;;;10.03;5.90;;;;;;;-0.20;57.60;99736.72;5050230;28;20328;-82
2022/03/07 09:12:27;;;;;;;8.17;5.13;;;;;;;-0.09;56.90;99729.78;5049046;28;20515;-82
2022/03/07 09:14:55;;;;;;;;;;;;;;;0.06;57.64;99755.50;5047016;28;20049;-81
2022/03/07 09:17:22;;;;;;;12.50;5.87;;;;;;;0.15;57.05;99748.66;5048555;28;20434;-82
2022/03/07 09:19:49;;;;;;;9.60;5.73;;;;;;;0.24;57.30;99750.72;5054775;28;20110;-81
2022/03/07 09:22:16;;;;;;;11.83;6.43;;;;;;;0.17;57.01;99760.97;5051305;28;20400;-81
2022/03/07 09:24:42;;;;;;;10.10;5.50;;;;;;;0.19;56.14;99744.81;5051494;28;20459;-81
2022/03/07 09:27:09;;;;;;;13.20;7.00;;;;;;;0.29;54.67;99743.22;5053682;28;20052;-82
2022/03/07 09:29:40;;;;;;;14.43;6.73;;;;;;;0.44;56.14;99756.53;5058231;28;20428;-82
2022/03/07 09:32:09;;;;;;;13.00;7.00;;;;;;;0.36;53.97;99738.31;5047749;28;20135;-82
2022/03/07 09:34:36;;;;;;;9.37;6.77;;;;;;;0.52;54.48;99740.78;5050636;28;20526;-82
2022/03/07 09:37:05;;;;;;;10.70;6.87;;;;;;;0.75;53.44;99762.41;5052426;28;20053;-82
2022/03/07 09:39:31;;;;;;;9.93;6.23;;;;;;;0.78;54.20;99741.63;5052253;28;20120;-82
2022/03/07 09:42:02;;;;;;;11.13;6.60;;;;;;;0.86;53.52;99763.38;5050622;28;20049;-82
2022/03/07 09:44:29;;;;;;;8.50;5.07;;;;;;;0.83;52.79;99754.72;5051090;28;20088;-82
2022/03/07 09:46:57;;;;;;;9.17;6.20;;;;;;;0.88;52.54;99764.09;5051835;28;20343;-82
2022/03/07 09:49:26;;;;;;;11.93;6.67;;;;;;;0.74;52.15;99741.94;5051670;28;20519;-82
2022/03/07 09:51:53;;;;;;;10.70;6.17;;;;;;;0.76;53.49;99732.84;5052035;28;20056;-82
2022/03/07 09:54:20;;;;;;;10.87;6.77;;;;;;;0.96;53.28;99749.31;5050861;28;20057;-80
2022/03/07 09:56:48;;;;;;;11.27;6.00;;;;;;;0.98;51.53;99760.75;5052311;28;20091;-82
2022/03/07 09:59:16;;;;;;;10.10;6.03;;;;;;;1.00;50.99;99758.84;5051219;28;20695;-82
2022/03/07 10:01:43;;;;;;;10.17;6.07;;;;;;;1.14;51.01;99765.91;5051584;28;20073;-82
2022/03/07 10:04:13;;;;;;;12.27;6.43;;;;;;;1.05;50.44;99746.84;5050384;28;20102;-81
2022/03/07 10:06:55;;;;;;;9.43;6.35;;;;;;;1.18;50.54;99768.25;5052183;28;20554;-80
2022/03/07 10:09:22;;;;;;;14.17;7.23;;;;;;;1.26;51.18;99765.00;5071854;28;20103;-81
2022/03/07 10:11:55;;;;;;;10.83;6.53;;;;;;;1.34;49.71;99764.44;5072665;28;20045;-82
2022/03/07 10:14:44;;;;;;;9.90;6.33;;;;;;;0.84;50.60;99743.00;5071462;28;20049;-80
2022/03/07 10:17:19;;;;;;;10.68;6.28;;;;;;;0.75;50.56;99749.03;5061618;28;20041;-80
2022/03/07 10:19:46;;;;;;;11.70;5.60;;;;;;;1.16;49.96;99770.19;5069069;28;20041;-81
2022/03/07 10:22:21;;;;;;;12.60;6.13;;;;;;;1.20;49.36;99752.06;5067056;28;20075;-80
2022/03/07 10:24:59;;;;;;;15.80;8.00;;;;;;;1.45;49.50;99755.66;5064798;28;20067;-81
2022/03/07 10:27:26;;;;;;;12.30;6.25;;;;;;;1.83;49.38;99742.09;5058976;28;20041;-81
2022/03/07 10:29:53;;;;;;;11.18;6.65;;;;;;;1.87;48.20;99748.09;5061900;28;20476;-81
2022/03/07 10:32:20;;;;;;;9.60;5.90;;;;;;;1.79;47.22;99763.88;5057204;28;20501;-81
2022/03/07 10:34:47;;;;;;;12.18;6.93;;;;;;;1.61;48.34;99769.63;5051698;28;20053;-81
2022/03/07 10:37:14;;;;;;;13.27;6.70;;;;;;;1.63;48.18;99765.00;5050858;28;20049;-77
2022/03/07 10:39:48;;;;;;;10.98;7.28;;;;;;;1.41;47.87;99752.31;5050902;28;20063;-81
2022/03/07 10:42:16;;;;;;;11.25;6.50;;;;;;;1.51;47.78;99756.06;5049488;28;20476;-80
2022/03/07 10:44:43;;;;;;;10.38;5.90;;;;;;;1.63;47.60;99746.25;5057003;28;20049;-80
2022/03/07 10:47:12;;;;;;;11.43;7.38;;;;;;;1.55;47.31;99733.44;5057694;28;20055;-80
2022/03/07 10:49:48;;;;;;;10.18;6.47;;;;;;;1.81;48.66;99764.59;5051570;28;20063;-80
2022/03/07 10:52:18;;;;;;;11.07;6.60;;;;;;;1.79;48.32;99753.16;5047252;28;20145;-80
2022/03/07 10:54:47;;;;;;;8.80;5.78;;;;;;;1.90;47.26;99762.09;5053341;28;20084;-80
2022/03/07 10:57:14;;;;;;;12.80;6.97;;;;;;;1.77;46.77;99766.66;5050625;28;20048;-80
2022/03/07 10:59:41;;;;;;;11.90;6.63;;;;;;;1.66;46.07;99755.91;5058291;28;20140;-80
2022/03/07 11:02:10;;;;;;;11.00;6.35;;;;;;;1.70;48.47;99752.00;5057421;28;20483;-80
2022/03/07 11:04:38;;;;;;;13.48;7.07;;;;;;;1.86;46.73;99757.94;5049885;28;20086;-80
2022/03/07 11:07:06;;;;;;;11.60;6.95;;;;;;;1.64;46.24;99742.63;5054252;28;20044;-80
2022/03/07 11:09:33;;;;;;;11.52;7.45;;;;;;;1.55;46.10;99770.94;5050076;28;20080;-80
2022/03/07 11:12:02;;;;;;;9.13;6.05;;;;;;;1.50;46.35;99743.59;5048004;28;20077;-81
2022/03/07 11:14:32;;;;;;;11.55;7.05;;;;;;;1.75;46.11;99728.41;5050171;28;20124;-81
2022/03/07 11:17:02;;;;;;;;;;;;;;;2.17;47.31;99747.59;5051794;28;20377;-81
2022/03/07 11:19:34;;;;;;;8.27;5.35;;;;;;;2.23;45.62;99728.34;5050329;28;20269;-81
2022/03/07 11:22:02;;;;;;;11.88;6.82;;;;;;;2.15;45.60;99714.63;5053040;28;20132;-81
2022/03/07 11:24:28;;;;;;;12.55;6.75;;;;;;;2.22;45.29;99725.78;5052967;28;20068;-81
2022/03/07 11:26:57;;;;;;;9.13;6.25;;;;;;;2.29;44.64;99721.66;5056465;28;20111;-78
2022/03/07 11:29:35;;;;;;;11.45;6.50;;;;;;;2.21;45.66;99711.47;5050073;28;20506;-81